Corbins Corner, Connecticut
Current Conditions -  °F | °C
As of 2:53 PM on Saturday 25 Oct 2014 (Local Time) from KHFD Reporting Station
Broken Clouds Broken Clouds  
Wind Chill: 65°   Ceiling: 6000
Heat Index: 65°   Visibility: 10mi
Dew Point: 40°   Wind: 10mph
Humidity: 40%   Direction: 260°W
Pressure: 29.66"   Gusts: NA
Location:  41.7325°N, 72.7334°W
Report Text: KHFD 251853Z 26009KT 10SM BKN060 18/04 A2966 RMK AO2 SLP042 T01830044
Loading
Personal Weather Stations






























Interactive Weather Map New forecast layout! Learn more

10-Day Weather Forecast

Advertisements
Track Severe Weather on mobile